Accueil
METAR-TAF:

METAR-TAF

Aéroports :

Shenandoah Municipal Airport

Shenandoah, Iowa, États-Unis

latitude: 40-45N, longitude: 095-25W, altitude: 296 m

Observation

Le bulletin a été fait il y a 25 minutes, à 19:35 UTC
Vent 16 kt de sud avec des rafales jusqu'à 23 kt
Température 18°C
Humidité 56%
Pression 1009 hPa
Visibilité: 16.1 km
Ciel couvert à une hauteur de 4600 ft

METAR: KSDA 021935Z AUTO 17016G23KT 10SM OVC046 18/09 A2981 RMK AO2

Heure: 15:00 (20:00 UTC)


TAF: absent

Observations et prévisions météorologiques de plus de 4000 aéroports (messages METAR et TAF).

Les stations disponibles sont représentées par des disques jaunes et rouges sur la carte.

Passer la souris dessus pour voir le nom de la station.

Cliquer dessus pour voir les observations et prévisions météorologiques.

Pour changer de carte: cliquez sur les boutons verts avec une croix noire pour zoomer, sur le bouton vert avec un tiret pour effectuer un zoom arrière, ou sur les flèches vertes pour les cartes adjacentes.


METAR-TAF: